KLCH/LCH METAR and TAF weather

Enter ICAO airport designator
Station Type Date Time Source
KLCH METAR 2019/11/18 10:53 UTC NOAA

KLCH 181053Z AUTO 00000KT 7SM CLR 06/05 A2997 RMK AO2 SLP155 T00610050


Station Type Date Time Source
KLCH Decoded METAR 2019/11/18 10:53 UTC NOAA

LAKE CHARLES REGIONAL AIRPORT , LA, United States (KLCH) 30-12N 093-23W 3M
Nov 18, 2019 - 05:53 AM EST / 2019.11.18 1053 UTC
Wind: Calm:0
Visibility: 7 mile(s):0
Sky conditions: clear
Temperature: 43.0 F (6.1 C)
Dew Point: 41.0 F (5.0 C)
Relative Humidity: 92%
Pressure (altimeter): 29.97 in. Hg (1014 hPa)
ob: KLCH 181053Z AUTO 00000KT 7SM CLR 06/05 A2997 RMK AO2 SLP155 T00610050
cycle: 11

Station Type Date Time Source
KLCH TAF 2019/11/18 12:22 UTC NOAA

TAF KLCH 181120Z 1812/1912 VRB04KT P6SM SKC
FM190900 00000KT 4SM BR SKC

Example: see airport list